Polar Endurance — WDG2085 — position and weather

sailwx.info

Track history (hours):
 
Tides and Currents Weather Stations Pressure Air Temp Water Temp Dewpoint Dewpoint Depression Visibility Wind Speed Wind Dir Waves Ship Positions

Polar Endurance

Owner: Dunlap Towing Co., LaConner, WA. More information available from US FCC via Universal Licensing System and Coast Guard Vessel Documentation Center.

Last reported at 2015-Mar-29 15:33 UTC. Time now 2015-Mar-29 22:30 UTC.
Position N 51°08' W 127°49'.

Length 37 m.

Type: Towing. MMSI: 303144000.

Date/timePositionNaut miles runAvg speedWind from/ knotsBaromVisibWave heightAir tempDewpointWater temp
2015-Mar-29 15:33N 51°08' W 127°49'9 8.8
2015-Mar-29 14:33N 51°02' W 127°38'9 8.8
2015-Mar-29 13:33N 50°56' W 127°27'10 9.7
2015-Mar-29 12:33N 50°51' W 127°15'10 9.6
2015-Mar-29 11:33N 50°46' W 127°02'9 8.8
2015-Mar-29 10:31N 50°40' W 126°51'10 9.6
2015-Mar-29 09:29N 50°32' W 126°41'1110.5
2015-Mar-29 08:25N 50°30' W 126°24'74 8.3
2015-Mar-28 23:32N 49°48' W 124°49'1010.2
2015-Mar-28 22:32N 49°41' W 124°37'10 9.4
2015-Mar-28 21:31N 49°36' W 124°25'9 9.0
2015-Mar-28 20:30N 49°31' W 124°13'22 9.5
2015-Mar-28 18:13N 49°18' W 123°47'7 9.5
2015-Mar-28 17:31N 49°14' W 123°39'9 9.0
2015-Mar-28 16:33N 49°08' W 123°29'8 8.3
2015-Mar-28 15:33N 49°03' W 123°19'8 8.1
2015-Mar-28 14:33N 48°58' W 123°10'8 8.0
2015-Mar-28 13:33N 48°52' W 123°00'9 8.4
2015-Mar-28 12:33N 48°47' W 122°50'8 8.6
2015-Mar-28 11:33N 48°40' W 122°42'9 8.7
2015-Mar-28 10:33N 48°32' W 122°44'9 9.0
2015-Mar-28 09:33N 48°23' W 122°44'9 8.6
2015-Mar-28 08:28N 48°14' W 122°48'9 8.0
2015-Mar-28 07:22N 48°07' W 122°39'7 8.1
2015-Mar-28 06:33N 48°01' W 122°36'4 7.6
2015-Mar-28 06:04N 47°58' W 122°33'4 8.4
2015-Mar-28 05:33N 47°55' W 122°29'9 9.2
2015-Mar-28 04:38N 47°46' W 122°26'110.5
2015-Mar-28 04:34N 47°46' W 122°26'0 4.7
2015-Mar-28 04:32N 47°46' W 122°26'9 8.7
2015-Mar-28 03:33N 47°37' W 122°24'0 0.0
2015-Mar-28 03:32N 47°37' W 122°24'2 2.2
2015-Mar-28 02:33N 47°36' W 122°22'0 0.0
2015-Mar-28 02:32N 47°36' W 122°22'0 0.5
2015-Mar-28 01:33N 47°35' W 122°21'0 0.0
2015-Mar-28 01:32N 47°35' W 122°21'0 0.0
2015-Mar-28 00:33N 47°35' W 122°21'0 0.0
2015-Mar-28 00:32N 47°35' W 122°21'0 0.0
2015-Mar-27 23:33N 47°35' W 122°21'0 0.2
2015-Mar-27 23:32N 47°35' W 122°21'0 0.0
2015-Mar-27 22:34N 47°35' W 122°21'0 0.0
2015-Mar-27 22:31N 47°35' W 122°21'2 2.3
2015-Mar-27 21:33N 47°37' W 122°24'0 7.8
2015-Mar-27 21:32N 47°37' W 122°24'1111.5
2015-Mar-27 20:33N 47°48' W 122°24'0 8.3
2015-Mar-27 20:32N 47°48' W 122°24'1212.7
2015-Mar-27 19:33N 47°59' W 122°14'  
Track history (hours):
 
Tides and Currents Weather Stations Pressure Air Temp Water Temp Dewpoint Dewpoint Depression Visibility Wind Speed Wind Dir Waves Ship Positions

Polar Endurance

Owner: Dunlap Towing Co., LaConner, WA. More information available from US FCC via Universal Licensing System and Coast Guard Vessel Documentation Center.

Last reported at 2015-Mar-29 15:33 UTC. Time now 2015-Mar-29 22:30 UTC.
Position N 51°08' W 127°49'.

Length 37 m.

Type: Towing. MMSI: 303144000.

Date/timePositionNaut miles runAvg speedWind from/ knotsBaromVisibWave heightAir tempDewpointWater temp
2015-Mar-29 15:33N 51°08' W 127°49'9 8.8
2015-Mar-29 14:33N 51°02' W 127°38'9 8.8
2015-Mar-29 13:33N 50°56' W 127°27'10 9.7
2015-Mar-29 12:33N 50°51' W 127°15'10 9.6
2015-Mar-29 11:33N 50°46' W 127°02'9 8.8
2015-Mar-29 10:31N 50°40' W 126°51'10 9.6
2015-Mar-29 09:29N 50°32' W 126°41'1110.5
2015-Mar-29 08:25N 50°30' W 126°24'74 8.3
2015-Mar-28 23:32N 49°48' W 124°49'1010.2
2015-Mar-28 22:32N 49°41' W 124°37'10 9.4
2015-Mar-28 21:31N 49°36' W 124°25'9 9.0
2015-Mar-28 20:30N 49°31' W 124°13'22 9.5
2015-Mar-28 18:13N 49°18' W 123°47'7 9.5
2015-Mar-28 17:31N 49°14' W 123°39'9 9.0
2015-Mar-28 16:33N 49°08' W 123°29'8 8.3
2015-Mar-28 15:33N 49°03' W 123°19'8 8.1
2015-Mar-28 14:33N 48°58' W 123°10'8 8.0
2015-Mar-28 13:33N 48°52' W 123°00'9 8.4
2015-Mar-28 12:33N 48°47' W 122°50'8 8.6
2015-Mar-28 11:33N 48°40' W 122°42'9 8.7
2015-Mar-28 10:33N 48°32' W 122°44'9 9.0
2015-Mar-28 09:33N 48°23' W 122°44'9 8.6
2015-Mar-28 08:28N 48°14' W 122°48'9 8.0
2015-Mar-28 07:22N 48°07' W 122°39'7 8.1
2015-Mar-28 06:33N 48°01' W 122°36'4 7.6
2015-Mar-28 06:04N 47°58' W 122°33'4 8.4
2015-Mar-28 05:33N 47°55' W 122°29'9 9.2
2015-Mar-28 04:38N 47°46' W 122°26'110.5
2015-Mar-28 04:34N 47°46' W 122°26'0 4.7
2015-Mar-28 04:32N 47°46' W 122°26'9 8.7
2015-Mar-28 03:33N 47°37' W 122°24'0 0.0
2015-Mar-28 03:32N 47°37' W 122°24'2 2.2
2015-Mar-28 02:33N 47°36' W 122°22'0 0.0
2015-Mar-28 02:32N 47°36' W 122°22'0 0.5
2015-Mar-28 01:33N 47°35' W 122°21'0 0.0
2015-Mar-28 01:32N 47°35' W 122°21'0 0.0
2015-Mar-28 00:33N 47°35' W 122°21'0 0.0
2015-Mar-28 00:32N 47°35' W 122°21'0 0.0
2015-Mar-27 23:33N 47°35' W 122°21'0 0.2
2015-Mar-27 23:32N 47°35' W 122°21'0 0.0
2015-Mar-27 22:34N 47°35' W 122°21'0 0.0
2015-Mar-27 22:31N 47°35' W 122°21'2 2.3
2015-Mar-27 21:33N 47°37' W 122°24'0 7.8
2015-Mar-27 21:32N 47°37' W 122°24'1111.5
2015-Mar-27 20:33N 47°48' W 122°24'0 8.3
2015-Mar-27 20:32N 47°48' W 122°24'1212.7
2015-Mar-27 19:33N 47°59' W 122°14'  

Dump ship's entire track history